Huvudsida
METAR-TAF:

METAR-TAF

Flygplatser :

Stokmarknes flygplats. Skagen

Stokmarknes, Norge

latitud: 68-35N, longitud: 015-01E, höjd: 0 m

Aktuellt väderrapport

Denna rapport gjordes för 56 minuter sedan, klockan 12:20 UTC
Vind 2 kt varierande vindriktning
Temperatur 17°C
Fuktighet 48%
Tryck 1002 hPa
Sikt 10 km eller mer
Inga moln under 1 500 m eller inga cumulonimbus

METAR: ENSK 171220Z VRB02KT CAVOK 17/06 Q1002

Tid: 15:16 (13:16 UTC)


TAF: saknas

Aktuella väderrapporter och prognoser från 4000 flygplatser (METAR- och TAF-rapporter).

De tillgängliga stationerna syns som gula och röda prickar på kartan.

För musen över prickarna för att se namnen på stationerna.

Klicka sedan för att få väderrapporter och prognoser.

För att ändra kartan: Klicka på de gröna knapparna med ett svart kors på för att zooma in; den gröna knappen med ett streck på för att zooma ut; eller på de gröna pilarna för angränsande kartor.


METAR-TAF: